sensor_id;sensor_type;location;lat;lon;timestamp;P1;durP1;ratioP1;P2;durP2;ratioP2
75737;SDS011;64356;45.638;13.764;2023-04-27T00:00:37;2.17;;;1.38;;
75737;SDS011;64356;45.638;13.764;2023-04-27T00:03:02;2.15;;;1.45;;
75737;SDS011;64356;45.638;13.764;2023-04-27T00:05:38;1.83;;;1.30;;
75737;SDS011;64356;45.638;13.764;2023-04-27T00:08:04;2.05;;;1.40;;
75737;SDS011;64356;45.638;13.764;2023-04-27T00:10:31;3.78;;;1.40;;
75737;SDS011;64356;45.638;13.764;2023-04-27T00:12:57;3.55;;;1.58;;
75737;SDS011;64356;45.638;13.764;2023-04-27T00:15:22;3.70;;;1.73;;
75737;SDS011;64356;45.638;13.764;2023-04-27T00:17:48;2.35;;;1.15;;
75737;SDS011;64356;45.638;13.764;2023-04-27T00:20:14;1.88;;;1.27;;
75737;SDS011;64356;45.638;13.764;2023-04-27T00:22:40;5.35;;;1.73;;
75737;SDS011;64356;45.638;13.764;2023-04-27T00:25:06;2.00;;;1.70;;
75737;SDS011;64356;45.638;13.764;2023-04-27T00:27:32;2.95;;;1.30;;
75737;SDS011;64356;45.638;13.764;2023-04-27T00:29:57;3.60;;;1.73;;
75737;SDS011;64356;45.638;13.764;2023-04-27T00:32:23;3.75;;;1.50;;
75737;SDS011;64356;45.638;13.764;2023-04-27T00:34:49;1.90;;;1.45;;
75737;SDS011;64356;45.638;13.764;2023-04-27T00:37:15;3.80;;;1.38;;
75737;SDS011;64356;45.638;13.764;2023-04-27T00:39:42;1.73;;;1.42;;
75737;SDS011;64356;45.638;13.764;2023-04-27T00:42:08;7.22;;;1.45;;
75737;SDS011;64356;45.638;13.764;2023-04-27T00:44:38;4.40;;;1.58;;
75737;SDS011;64356;45.638;13.764;2023-04-27T00:47:03;7.07;;;1.67;;
75737;SDS011;64356;45.638;13.764;2023-04-27T00:49:30;2.72;;;1.40;;
75737;SDS011;64356;45.638;13.764;2023-04-27T00:51:56;2.40;;;1.45;;
75737;SDS011;64356;45.638;13.764;2023-04-27T00:54:22;2.75;;;1.77;;
75737;SDS011;64356;45.638;13.764;2023-04-27T00:56:49;1.48;;;1.10;;
75737;SDS011;64356;45.638;13.764;2023-04-27T00:59:18;2.38;;;1.35;;
75737;SDS011;64356;45.638;13.764;2023-04-27T01:01:47;4.93;;;1.70;;
75737;SDS011;64356;45.638;13.764;2023-04-27T01:04:13;2.47;;;1.10;;
75737;SDS011;64356;45.638;13.764;2023-04-27T01:06:40;3.47;;;1.20;;
75737;SDS011;64356;45.638;13.764;2023-04-27T01:09:06;1.23;;;1.13;;
75737;SDS011;64356;45.638;13.764;2023-04-27T01:11:33;3.13;;;1.75;;
75737;SDS011;64356;45.638;13.764;2023-04-27T01:14:02;2.42;;;1.90;;
75737;SDS011;64356;45.638;13.764;2023-04-27T01:16:29;2.20;;;1.50;;
75737;SDS011;64356;45.638;13.764;2023-04-27T01:18:59;2.60;;;1.42;;
75737;SDS011;64356;45.638;13.764;2023-04-27T01:21:25;3.25;;;1.20;;
75737;SDS011;64356;45.638;13.764;2023-04-27T01:23:51;1.88;;;1.33;;
75737;SDS011;64356;45.638;13.764;2023-04-27T01:26:17;3.00;;;1.67;;
75737;SDS011;64356;45.638;13.764;2023-04-27T01:28:43;2.25;;;1.45;;
75737;SDS011;64356;45.638;13.764;2023-04-27T01:31:09;2.65;;;1.88;;
75737;SDS011;64356;45.638;13.764;2023-04-27T01:33:35;3.00;;;1.50;;
75737;SDS011;64356;45.638;13.764;2023-04-27T01:36:01;2.40;;;1.40;;
75737;SDS011;64356;45.638;13.764;2023-04-27T01:38:27;3.85;;;1.58;;
75737;SDS011;64356;45.638;13.764;2023-04-27T01:40:53;1.50;;;1.23;;
75737;SDS011;64356;45.638;13.764;2023-04-27T01:43:19;4.57;;;1.40;;
75737;SDS011;64356;45.638;13.764;2023-04-27T01:45:45;2.35;;;1.52;;
75737;SDS011;64356;45.638;13.764;2023-04-27T01:48:12;1.25;;;1.15;;
75737;SDS011;64356;45.638;13.764;2023-04-27T01:50:38;2.72;;;1.58;;
75737;SDS011;64356;45.638;13.764;2023-04-27T01:53:04;2.70;;;1.23;;
75737;SDS011;64356;45.638;13.764;2023-04-27T01:55:29;2.10;;;1.48;;
75737;SDS011;64356;45.638;13.764;2023-04-27T01:57:55;3.50;;;1.25;;
75737;SDS011;64356;45.638;13.764;2023-04-27T02:00:21;1.75;;;1.40;;
75737;SDS011;64356;45.638;13.764;2023-04-27T02:02:46;4.63;;;1.50;;
75737;SDS011;64356;45.638;13.764;2023-04-27T02:05:14;2.70;;;1.70;;
75737;SDS011;64356;45.638;13.764;2023-04-27T02:07:40;2.22;;;1.38;;
75737;SDS011;64356;45.638;13.764;2023-04-27T02:10:06;1.58;;;1.23;;
75737;SDS011;64356;45.638;13.764;2023-04-27T02:12:32;4.63;;;1.35;;
75737;SDS011;64356;45.638;13.764;2023-04-27T02:14:58;3.22;;;1.58;;
75737;SDS011;64356;45.638;13.764;2023-04-27T02:17:23;2.88;;;1.67;;
75737;SDS011;64356;45.638;13.764;2023-04-27T02:19:49;1.75;;;1.10;;
75737;SDS011;64356;45.638;13.764;2023-04-27T02:22:15;2.42;;;1.35;;
75737;SDS011;64356;45.638;13.764;2023-04-27T02:24:41;1.42;;;1.20;;
75737;SDS011;64356;45.638;13.764;2023-04-27T02:27:07;2.72;;;1.30;;
75737;SDS011;64356;45.638;13.764;2023-04-27T02:29:32;3.20;;;1.20;;
75737;SDS011;64356;45.638;13.764;2023-04-27T02:32:01;3.25;;;1.42;;
75737;SDS011;64356;45.638;13.764;2023-04-27T02:34:27;1.52;;;1.25;;
75737;SDS011;64356;45.638;13.764;2023-04-27T02:36:52;1.48;;;1.38;;
75737;SDS011;64356;45.638;13.764;2023-04-27T02:39:18;5.45;;;1.40;;
75737;SDS011;64356;45.638;13.764;2023-04-27T02:41:44;4.28;;;1.63;;
75737;SDS011;64356;45.638;13.764;2023-04-27T02:44:09;2.72;;;1.30;;
75737;SDS011;64356;45.638;13.764;2023-04-27T02:46:35;1.55;;;1.40;;
75737;SDS011;64356;45.638;13.764;2023-04-27T02:49:01;4.10;;;1.50;;
75737;SDS011;64356;45.638;13.764;2023-04-27T02:51:26;2.40;;;1.20;;
75737;SDS011;64356;45.638;13.764;2023-04-27T02:53:52;2.55;;;1.33;;
75737;SDS011;64356;45.638;13.764;2023-04-27T02:56:18;1.92;;;1.55;;
75737;SDS011;64356;45.638;13.764;2023-04-27T02:58:44;4.32;;;1.55;;
75737;SDS011;64356;45.638;13.764;2023-04-27T03:01:09;4.93;;;1.40;;
75737;SDS011;64356;45.638;13.764;2023-04-27T03:03:35;1.42;;;1.33;;
75737;SDS011;64356;45.638;13.764;2023-04-27T03:06:01;3.05;;;1.33;;
75737;SDS011;64356;45.638;13.764;2023-04-27T03:08:27;1.75;;;1.40;;
75737;SDS011;64356;45.638;13.764;2023-04-27T03:10:53;3.38;;;1.90;;
75737;SDS011;64356;45.638;13.764;2023-04-27T03:13:19;5.10;;;1.70;;
75737;SDS011;64356;45.638;13.764;2023-04-27T03:15:46;3.00;;;1.52;;
75737;SDS011;64356;45.638;13.764;2023-04-27T03:18:12;1.35;;;1.23;;
75737;SDS011;64356;45.638;13.764;2023-04-27T03:20:37;1.88;;;1.35;;
75737;SDS011;64356;45.638;13.764;2023-04-27T03:23:03;3.35;;;1.80;;
75737;SDS011;64356;45.638;13.764;2023-04-27T03:25:29;2.38;;;1.15;;
75737;SDS011;64356;45.638;13.764;2023-04-27T03:27:54;3.85;;;1.45;;
75737;SDS011;64356;45.638;13.764;2023-04-27T03:30:20;1.50;;;1.40;;
75737;SDS011;64356;45.638;13.764;2023-04-27T03:32:46;3.83;;;1.70;;
75737;SDS011;64356;45.638;13.764;2023-04-27T03:35:12;2.55;;;1.50;;
75737;SDS011;64356;45.638;13.764;2023-04-27T03:37:37;5.55;;;1.40;;
75737;SDS011;64356;45.638;13.764;2023-04-27T03:40:03;1.77;;;1.30;;
75737;SDS011;64356;45.638;13.764;2023-04-27T03:42:31;2.38;;;1.58;;
75737;SDS011;64356;45.638;13.764;2023-04-27T03:44:57;2.45;;;1.58;;
75737;SDS011;64356;45.638;13.764;2023-04-27T03:47:22;1.58;;;1.25;;
75737;SDS011;64356;45.638;13.764;2023-04-27T03:49:48;1.45;;;1.35;;
75737;SDS011;64356;45.638;13.764;2023-04-27T03:52:14;1.52;;;1.40;;
75737;SDS011;64356;45.638;13.764;2023-04-27T03:54:39;2.08;;;1.40;;
75737;SDS011;64356;45.638;13.764;2023-04-27T03:57:05;1.73;;;1.33;;
75737;SDS011;64356;45.638;13.764;2023-04-27T03:59:31;3.80;;;1.80;;
75737;SDS011;64356;45.638;13.764;2023-04-27T04:01:57;1.52;;;1.42;;
75737;SDS011;64356;45.638;13.764;2023-04-27T04:04:22;2.58;;;1.30;;
75737;SDS011;64356;45.638;13.764;2023-04-27T04:06:48;1.92;;;1.10;;
75737;SDS011;64356;45.638;13.764;2023-04-27T04:09:14;2.38;;;1.38;;
75737;SDS011;64356;45.638;13.764;2023-04-27T04:11:40;2.00;;;1.40;;
75737;SDS011;64356;45.638;13.764;2023-04-27T04:14:06;1.80;;;1.13;;
75737;SDS011;64356;45.638;13.764;2023-04-27T04:16:34;2.03;;;1.33;;
75737;SDS011;64356;45.638;13.764;2023-04-27T04:19:00;1.88;;;1.40;;
75737;SDS011;64356;45.638;13.764;2023-04-27T04:21:25;2.67;;;1.55;;
75737;SDS011;64356;45.638;13.764;2023-04-27T04:23:51;1.30;;;1.17;;
75737;SDS011;64356;45.638;13.764;2023-04-27T04:26:17;1.40;;;1.30;;
75737;SDS011;64356;45.638;13.764;2023-04-27T04:28:42;1.30;;;1.20;;
75737;SDS011;64356;45.638;13.764;2023-04-27T04:31:08;1.45;;;1.35;;
75737;SDS011;64356;45.638;13.764;2023-04-27T04:33:34;1.80;;;1.30;;
75737;SDS011;64356;45.638;13.764;2023-04-27T04:36:03;3.40;;;1.20;;
75737;SDS011;64356;45.638;13.764;2023-04-27T04:38:29;1.95;;;1.20;;
75737;SDS011;64356;45.638;13.764;2023-04-27T04:40:56;1.60;;;1.45;;
75737;SDS011;64356;45.638;13.764;2023-04-27T04:43:23;2.63;;;1.45;;
75737;SDS011;64356;45.638;13.764;2023-04-27T04:45:48;1.98;;;1.35;;
75737;SDS011;64356;45.638;13.764;2023-04-27T04:48:14;1.55;;;1.45;;
75737;SDS011;64356;45.638;13.764;2023-04-27T04:50:40;1.63;;;1.23;;
75737;SDS011;64356;45.638;13.764;2023-04-27T04:53:06;2.17;;;1.48;;
75737;SDS011;64356;45.638;13.764;2023-04-27T04:55:32;2.47;;;1.50;;
75737;SDS011;64356;45.638;13.764;2023-04-27T04:57:58;1.20;;;1.10;;
75737;SDS011;64356;45.638;13.764;2023-04-27T05:00:24;2.08;;;1.67;;
75737;SDS011;64356;45.638;13.764;2023-04-27T05:02:50;3.45;;;1.33;;
75737;SDS011;64356;45.638;13.764;2023-04-27T05:05:16;1.48;;;1.30;;
75737;SDS011;64356;45.638;13.764;2023-04-27T05:07:42;1.90;;;1.60;;
75737;SDS011;64356;45.638;13.764;2023-04-27T05:10:07;1.35;;;1.25;;
75737;SDS011;64356;45.638;13.764;2023-04-27T05:12:33;1.73;;;1.30;;
75737;SDS011;64356;45.638;13.764;2023-04-27T05:14:59;2.72;;;1.40;;
75737;SDS011;64356;45.638;13.764;2023-04-27T05:17:25;2.13;;;1.40;;
75737;SDS011;64356;45.638;13.764;2023-04-27T05:19:50;1.67;;;1.30;;
75737;SDS011;64356;45.638;13.764;2023-04-27T05:22:16;2.17;;;1.33;;
75737;SDS011;64356;45.638;13.764;2023-04-27T05:24:42;3.17;;;1.20;;
75737;SDS011;64356;45.638;13.764;2023-04-27T05:27:07;2.03;;;1.38;;
75737;SDS011;64356;45.638;13.764;2023-04-27T05:29:33;1.50;;;1.40;;
75737;SDS011;64356;45.638;13.764;2023-04-27T05:31:59;1.38;;;1.20;;
75737;SDS011;64356;45.638;13.764;2023-04-27T05:34:24;1.90;;;1.30;;
75737;SDS011;64356;45.638;13.764;2023-04-27T05:36:50;3.40;;;1.52;;
75737;SDS011;64356;45.638;13.764;2023-04-27T05:39:16;3.33;;;1.38;;
75737;SDS011;64356;45.638;13.764;2023-04-27T05:41:42;1.40;;;1.30;;
75737;SDS011;64356;45.638;13.764;2023-04-27T05:44:07;7.03;;;2.28;;
75737;SDS011;64356;45.638;13.764;2023-04-27T05:46:33;3.20;;;1.33;;
75737;SDS011;64356;45.638;13.764;2023-04-27T05:48:59;2.67;;;1.40;;
75737;SDS011;64356;45.638;13.764;2023-04-27T05:51:25;2.47;;;1.50;;
75737;SDS011;64356;45.638;13.764;2023-04-27T05:53:51;1.55;;;1.25;;
75737;SDS011;64356;45.638;13.764;2023-04-27T05:56:20;24.33;;;2.28;;
75737;SDS011;64356;45.638;13.764;2023-04-27T05:58:46;39.08;;;3.17;;
75737;SDS011;64356;45.638;13.764;2023-04-27T06:01:12;16.48;;;2.25;;
75737;SDS011;64356;45.638;13.764;2023-04-27T06:03:38;9.73;;;2.70;;
75737;SDS011;64356;45.638;13.764;2023-04-27T06:06:03;8.45;;;2.40;;
75737;SDS011;64356;45.638;13.764;2023-04-27T06:08:29;14.65;;;2.80;;
75737;SDS011;64356;45.638;13.764;2023-04-27T06:10:55;13.32;;;2.58;;
75737;SDS011;64356;45.638;13.764;2023-04-27T06:13:21;12.02;;;2.13;;
75737;SDS011;64356;45.638;13.764;2023-04-27T06:15:47;10.45;;;2.20;;
75737;SDS011;64356;45.638;13.764;2023-04-27T06:18:12;22.85;;;2.92;;
75737;SDS011;64356;45.638;13.764;2023-04-27T06:20:38;15.93;;;2.75;;
75737;SDS011;64356;45.638;13.764;2023-04-27T06:23:04;6.32;;;2.15;;
75737;SDS011;64356;45.638;13.764;2023-04-27T06:25:30;17.65;;;2.22;;
75737;SDS011;64356;45.638;13.764;2023-04-27T06:27:56;8.55;;;2.22;;
75737;SDS011;64356;45.638;13.764;2023-04-27T06:30:22;11.43;;;2.03;;
75737;SDS011;64356;45.638;13.764;2023-04-27T06:32:48;8.25;;;2.15;;
75737;SDS011;64356;45.638;13.764;2023-04-27T06:35:15;18.17;;;2.25;;
75737;SDS011;64356;45.638;13.764;2023-04-27T06:37:41;8.00;;;2.03;;
75737;SDS011;64356;45.638;13.764;2023-04-27T06:40:07;9.13;;;1.75;;
75737;SDS011;64356;45.638;13.764;2023-04-27T06:42:33;4.28;;;1.98;;
75737;SDS011;64356;45.638;13.764;2023-04-27T06:44:59;5.85;;;1.77;;
75737;SDS011;64356;45.638;13.764;2023-04-27T06:47:25;7.80;;;1.95;;
75737;SDS011;64356;45.638;13.764;2023-04-27T06:49:51;7.07;;;1.67;;
75737;SDS011;64356;45.638;13.764;2023-04-27T06:52:17;4.70;;;1.50;;
75737;SDS011;64356;45.638;13.764;2023-04-27T06:54:43;8.98;;;1.83;;
75737;SDS011;64356;45.638;13.764;2023-04-27T06:57:08;9.00;;;2.10;;
75737;SDS011;64356;45.638;13.764;2023-04-27T06:59:34;7.45;;;2.47;;
75737;SDS011;64356;45.638;13.764;2023-04-27T07:02:00;7.65;;;1.98;;
75737;SDS011;64356;45.638;13.764;2023-04-27T07:04:26;8.48;;;2.00;;
75737;SDS011;64356;45.638;13.764;2023-04-27T07:06:52;8.70;;;1.83;;
75737;SDS011;64356;45.638;13.764;2023-04-27T07:09:17;24.45;;;3.10;;
75737;SDS011;64356;45.638;13.764;2023-04-27T07:11:43;15.50;;;2.63;;
75737;SDS011;64356;45.638;13.764;2023-04-27T07:14:09;10.85;;;2.20;;
75737;SDS011;64356;45.638;13.764;2023-04-27T07:16:34;17.08;;;2.50;;
75737;SDS011;64356;45.638;13.764;2023-04-27T07:19:00;14.73;;;2.28;;
75737;SDS011;64356;45.638;13.764;2023-04-27T07:21:26;18.95;;;2.15;;
75737;SDS011;64356;45.638;13.764;2023-04-27T07:23:52;12.48;;;2.78;;
75737;SDS011;64356;45.638;13.764;2023-04-27T07:26:18;9.07;;;2.38;;
75737;SDS011;64356;45.638;13.764;2023-04-27T07:28:45;6.57;;;1.92;;
75737;SDS011;64356;45.638;13.764;2023-04-27T07:31:11;14.65;;;2.40;;
75737;SDS011;64356;45.638;13.764;2023-04-27T07:33:38;11.18;;;2.10;;
75737;SDS011;64356;45.638;13.764;2023-04-27T07:36:04;9.05;;;1.63;;
75737;SDS011;64356;45.638;13.764;2023-04-27T07:38:29;4.97;;;2.03;;
75737;SDS011;64356;45.638;13.764;2023-04-27T07:41:01;6.43;;;2.00;;
75737;SDS011;64356;45.638;13.764;2023-04-27T07:43:29;7.45;;;1.98;;
75737;SDS011;64356;45.638;13.764;2023-04-27T07:45:59;22.50;;;4.05;;
75737;SDS011;64356;45.638;13.764;2023-04-27T07:48:24;8.73;;;1.92;;
75737;SDS011;64356;45.638;13.764;2023-04-27T07:50:51;14.65;;;1.77;;
75737;SDS011;64356;45.638;13.764;2023-04-27T07:53:16;8.70;;;2.10;;
75737;SDS011;64356;45.638;13.764;2023-04-27T07:55:43;13.95;;;2.72;;
75737;SDS011;64356;45.638;13.764;2023-04-27T07:58:08;15.00;;;1.90;;
75737;SDS011;64356;45.638;13.764;2023-04-27T08:00:35;14.20;;;1.70;;
75737;SDS011;64356;45.638;13.764;2023-04-27T08:03:01;13.77;;;2.30;;
75737;SDS011;64356;45.638;13.764;2023-04-27T08:05:27;12.40;;;2.28;;
75737;SDS011;64356;45.638;13.764;2023-04-27T08:07:53;15.38;;;2.15;;
75737;SDS011;64356;45.638;13.764;2023-04-27T08:10:18;30.25;;;4.03;;
75737;SDS011;64356;45.638;13.764;2023-04-27T08:12:44;13.15;;;2.20;;
75737;SDS011;64356;45.638;13.764;2023-04-27T08:15:10;8.80;;;3.08;;
75737;SDS011;64356;45.638;13.764;2023-04-27T08:17:36;8.07;;;3.17;;
75737;SDS011;64356;45.638;13.764;2023-04-27T08:20:04;9.57;;;2.10;;
75737;SDS011;64356;45.638;13.764;2023-04-27T08:22:31;14.10;;;2.35;;
75737;SDS011;64356;45.638;13.764;2023-04-27T08:24:58;15.40;;;2.22;;
75737;SDS011;64356;45.638;13.764;2023-04-27T08:27:24;15.85;;;3.67;;
75737;SDS011;64356;45.638;13.764;2023-04-27T08:29:49;6.85;;;1.92;;
75737;SDS011;64356;45.638;13.764;2023-04-27T08:32:15;9.80;;;2.17;;
75737;SDS011;64356;45.638;13.764;2023-04-27T08:34:41;9.00;;;2.22;;
75737;SDS011;64356;45.638;13.764;2023-04-27T08:37:09;15.65;;;1.80;;
75737;SDS011;64356;45.638;13.764;2023-04-27T08:39:34;8.60;;;1.95;;
75737;SDS011;64356;45.638;13.764;2023-04-27T08:42:00;19.55;;;2.70;;
75737;SDS011;64356;45.638;13.764;2023-04-27T08:44:26;10.60;;;1.58;;
75737;SDS011;64356;45.638;13.764;2023-04-27T08:46:51;12.18;;;2.67;;
75737;SDS011;64356;45.638;13.764;2023-04-27T08:49:17;8.75;;;1.90;;
75737;SDS011;64356;45.638;13.764;2023-04-27T08:51:43;10.15;;;2.33;;
75737;SDS011;64356;45.638;13.764;2023-04-27T08:54:09;19.80;;;2.80;;
75737;SDS011;64356;45.638;13.764;2023-04-27T08:56:34;20.00;;;2.33;;
75737;SDS011;64356;45.638;13.764;2023-04-27T08:59:00;11.05;;;1.95;;
75737;SDS011;64356;45.638;13.764;2023-04-27T09:01:28;16.77;;;2.60;;
75737;SDS011;64356;45.638;13.764;2023-04-27T09:03:56;14.15;;;2.50;;
75737;SDS011;64356;45.638;13.764;2023-04-27T09:06:29;26.35;;;3.90;;
75737;SDS011;64356;45.638;13.764;2023-04-27T09:08:56;12.60;;;3.03;;
75737;SDS011;64356;45.638;13.764;2023-04-27T09:11:35;21.02;;;2.75;;
75737;SDS011;64356;45.638;13.764;2023-04-27T09:14:03;24.02;;;2.47;;
75737;SDS011;64356;45.638;13.764;2023-04-27T09:16:40;26.73;;;3.72;;
75737;SDS011;64356;45.638;13.764;2023-04-27T09:19:06;22.05;;;3.10;;
75737;SDS011;64356;45.638;13.764;2023-04-27T09:21:32;39.13;;;3.45;;
75737;SDS011;64356;45.638;13.764;2023-04-27T09:24:08;15.85;;;2.75;;
75737;SDS011;64356;45.638;13.764;2023-04-27T09:26:37;15.23;;;1.95;;
75737;SDS011;64356;45.638;13.764;2023-04-27T09:29:03;16.52;;;3.13;;
75737;SDS011;64356;45.638;13.764;2023-04-27T09:31:33;43.17;;;3.17;;
75737;SDS011;64356;45.638;13.764;2023-04-27T09:33:59;40.33;;;3.20;;
75737;SDS011;64356;45.638;13.764;2023-04-27T09:36:26;15.95;;;3.25;;
75737;SDS011;64356;45.638;13.764;2023-04-27T09:38:52;30.25;;;2.78;;
75737;SDS011;64356;45.638;13.764;2023-04-27T09:41:18;23.65;;;2.80;;
75737;SDS011;64356;45.638;13.764;2023-04-27T09:43:44;12.52;;;2.33;;
75737;SDS011;64356;45.638;13.764;2023-04-27T09:46:11;14.45;;;2.60;;
75737;SDS011;64356;45.638;13.764;2023-04-27T09:48:38;20.83;;;2.40;;
75737;SDS011;64356;45.638;13.764;2023-04-27T09:51:05;7.75;;;1.98;;
75737;SDS011;64356;45.638;13.764;2023-04-27T10:01:48;14.15;;;2.88;;
75737;SDS011;64356;45.638;13.764;2023-04-27T10:07:03;11.75;;;1.88;;
75737;SDS011;64356;45.638;13.764;2023-04-27T10:09:49;17.27;;;2.22;;
75737;SDS011;64356;45.638;13.764;2023-04-27T10:14:51;22.42;;;2.83;;
75737;SDS011;64356;45.638;13.764;2023-04-27T10:17:24;15.85;;;2.60;;
75737;SDS011;64356;45.638;13.764;2023-04-27T10:20:00;23.70;;;2.38;;
75737;SDS011;64356;45.638;13.764;2023-04-27T10:25:23;16.50;;;2.40;;
75737;SDS011;64356;45.638;13.764;2023-04-27T10:27:57;8.65;;;2.50;;
75737;SDS011;64356;45.638;13.764;2023-04-27T10:30:25;20.63;;;2.53;;
75737;SDS011;64356;45.638;13.764;2023-04-27T10:32:56;9.35;;;2.10;;
75737;SDS011;64356;45.638;13.764;2023-04-27T10:35:34;21.45;;;2.92;;
75737;SDS011;64356;45.638;13.764;2023-04-27T10:38:07;8.57;;;2.88;;
75737;SDS011;64356;45.638;13.764;2023-04-27T10:40:44;14.57;;;2.75;;
75737;SDS011;64356;45.638;13.764;2023-04-27T10:43:17;8.27;;;1.90;;
75737;SDS011;64356;45.638;13.764;2023-04-27T10:45:47;9.10;;;2.30;;
75737;SDS011;64356;45.638;13.764;2023-04-27T10:48:13;13.60;;;2.58;;
75737;SDS011;64356;45.638;13.764;2023-04-27T10:50:40;16.33;;;2.05;;
75737;SDS011;64356;45.638;13.764;2023-04-27T10:53:08;13.43;;;2.00;;
75737;SDS011;64356;45.638;13.764;2023-04-27T10:55:34;11.35;;;3.03;;
75737;SDS011;64356;45.638;13.764;2023-04-27T10:58:01;18.60;;;2.47;;
75737;SDS011;64356;45.638;13.764;2023-04-27T11:00:28;36.05;;;3.28;;
75737;SDS011;64356;45.638;13.764;2023-04-27T11:02:56;21.30;;;2.42;;
75737;SDS011;64356;45.638;13.764;2023-04-27T11:05:34;23.13;;;2.72;;
75737;SDS011;64356;45.638;13.764;2023-04-27T11:08:10;31.38;;;3.20;;
75737;SDS011;64356;45.638;13.764;2023-04-27T11:10:39;26.15;;;2.67;;
75737;SDS011;64356;45.638;13.764;2023-04-27T11:13:12;30.90;;;2.75;;
75737;SDS011;64356;45.638;13.764;2023-04-27T11:16:11;20.13;;;3.65;;
75737;SDS011;64356;45.638;13.764;2023-04-27T11:18:31;20.73;;;2.33;;
75737;SDS011;64356;45.638;13.764;2023-04-27T11:21:06;13.25;;;2.17;;
75737;SDS011;64356;45.638;13.764;2023-04-27T11:23:39;9.07;;;2.10;;
75737;SDS011;64356;45.638;13.764;2023-04-27T11:26:17;20.60;;;2.78;;
75737;SDS011;64356;45.638;13.764;2023-04-27T11:31:22;9.25;;;2.08;;
75737;SDS011;64356;45.638;13.764;2023-04-27T11:33:49;10.98;;;1.80;;
75737;SDS011;64356;45.638;13.764;2023-04-27T11:36:16;18.55;;;2.47;;
75737;SDS011;64356;45.638;13.764;2023-04-27T11:41:12;8.18;;;1.80;;
75737;SDS011;64356;45.638;13.764;2023-04-27T11:43:42;13.23;;;2.40;;
75737;SDS011;64356;45.638;13.764;2023-04-27T11:46:13;5.43;;;1.98;;
75737;SDS011;64356;45.638;13.764;2023-04-27T11:48:39;5.15;;;1.83;;
75737;SDS011;64356;45.638;13.764;2023-04-27T11:51:05;21.42;;;2.22;;
75737;SDS011;64356;45.638;13.764;2023-04-27T11:53:35;56.47;;;3.63;;
75737;SDS011;64356;45.638;13.764;2023-04-27T11:56:02;21.75;;;2.03;;
75737;SDS011;64356;45.638;13.764;2023-04-27T11:58:33;31.73;;;1.83;;
75737;SDS011;64356;45.638;13.764;2023-04-27T12:01:00;12.27;;;1.30;;
75737;SDS011;64356;45.638;13.764;2023-04-27T12:03:26;7.88;;;1.17;;
75737;SDS011;64356;45.638;13.764;2023-04-27T12:05:52;8.95;;;1.38;;
75737;SDS011;64356;45.638;13.764;2023-04-27T12:08:18;7.47;;;1.13;;
75737;SDS011;64356;45.638;13.764;2023-04-27T12:10:44;13.52;;;1.67;;
75737;SDS011;64356;45.638;13.764;2023-04-27T12:13:11;13.55;;;1.30;;
75737;SDS011;64356;45.638;13.764;2023-04-27T12:15:40;3.20;;;1.30;;
75737;SDS011;64356;45.638;13.764;2023-04-27T12:18:06;5.68;;;1.58;;
75737;SDS011;64356;45.638;13.764;2023-04-27T12:20:32;3.72;;;1.35;;
75737;SDS011;64356;45.638;13.764;2023-04-27T12:22:58;7.50;;;1.65;;
75737;SDS011;64356;45.638;13.764;2023-04-27T12:25:24;4.93;;;1.35;;
75737;SDS011;64356;45.638;13.764;2023-04-27T12:27:50;8.48;;;1.42;;
75737;SDS011;64356;45.638;13.764;2023-04-27T12:30:17;2.50;;;0.95;;
75737;SDS011;64356;45.638;13.764;2023-04-27T12:32:43;5.80;;;0.85;;
75737;SDS011;64356;45.638;13.764;2023-04-27T12:35:08;4.10;;;0.85;;
75737;SDS011;64356;45.638;13.764;2023-04-27T12:37:34;8.18;;;1.33;;
75737;SDS011;64356;45.638;13.764;2023-04-27T12:40:01;1.75;;;0.82;;
75737;SDS011;64356;45.638;13.764;2023-04-27T12:42:30;9.25;;;1.13;;
75737;SDS011;64356;45.638;13.764;2023-04-27T12:44:56;3.17;;;1.17;;
75737;SDS011;64356;45.638;13.764;2023-04-27T12:47:22;5.68;;;0.90;;
75737;SDS011;64356;45.638;13.764;2023-04-27T12:49:48;1.45;;;0.90;;
75737;SDS011;64356;45.638;13.764;2023-04-27T12:52:15;3.67;;;0.85;;
75737;SDS011;64356;45.638;13.764;2023-04-27T12:54:41;3.63;;;1.00;;
75737;SDS011;64356;45.638;13.764;2023-04-27T12:57:06;2.95;;;1.08;;
75737;SDS011;64356;45.638;13.764;2023-04-27T12:59:32;4.05;;;0.85;;
75737;SDS011;64356;45.638;13.764;2023-04-27T13:02:02;3.30;;;1.17;;
75737;SDS011;64356;45.638;13.764;2023-04-27T13:04:30;6.50;;;1.30;;
75737;SDS011;64356;45.638;13.764;2023-04-27T13:06:56;3.03;;;1.27;;
75737;SDS011;64356;45.638;13.764;2023-04-27T13:09:27;5.68;;;1.10;;
75737;SDS011;64356;45.638;13.764;2023-04-27T13:11:53;2.83;;;0.90;;
75737;SDS011;64356;45.638;13.764;2023-04-27T13:14:20;7.53;;;1.10;;
75737;SDS011;64356;45.638;13.764;2023-04-27T13:16:45;5.85;;;1.25;;
75737;SDS011;64356;45.638;13.764;2023-04-27T13:19:11;12.52;;;1.27;;
75737;SDS011;64356;45.638;13.764;2023-04-27T13:21:37;9.95;;;1.30;;
75737;SDS011;64356;45.638;13.764;2023-04-27T13:24:03;9.38;;;1.58;;
75737;SDS011;64356;45.638;13.764;2023-04-27T13:26:29;12.70;;;1.67;;
75737;SDS011;64356;45.638;13.764;2023-04-27T13:28:55;3.30;;;1.30;;
75737;SDS011;64356;45.638;13.764;2023-04-27T13:31:21;8.65;;;1.85;;
75737;SDS011;64356;45.638;13.764;2023-04-27T13:33:47;8.93;;;1.40;;
75737;SDS011;64356;45.638;13.764;2023-04-27T13:36:12;15.35;;;1.63;;
75737;SDS011;64356;45.638;13.764;2023-04-27T13:38:38;9.75;;;2.10;;
75737;SDS011;64356;45.638;13.764;2023-04-27T13:41:04;8.32;;;2.15;;
75737;SDS011;64356;45.638;13.764;2023-04-27T13:43:30;9.55;;;2.38;;
75737;SDS011;64356;45.638;13.764;2023-04-27T13:45:57;8.20;;;1.52;;
75737;SDS011;64356;45.638;13.764;2023-04-27T13:48:23;1.45;;;1.25;;
75737;SDS011;64356;45.638;13.764;2023-04-27T13:50:49;4.53;;;1.35;;
75737;SDS011;64356;45.638;13.764;2023-04-27T13:53:15;3.45;;;1.23;;
75737;SDS011;64356;45.638;13.764;2023-04-27T13:55:41;3.75;;;1.25;;
75737;SDS011;64356;45.638;13.764;2023-04-27T13:58:08;1.20;;;1.10;;
75737;SDS011;64356;45.638;13.764;2023-04-27T14:00:35;1.58;;;1.17;;
75737;SDS011;64356;45.638;13.764;2023-04-27T14:03:01;1.95;;;1.23;;
75737;SDS011;64356;45.638;13.764;2023-04-27T14:05:28;2.33;;;1.33;;
75737;SDS011;64356;45.638;13.764;2023-04-27T14:07:54;2.17;;;1.20;;
75737;SDS011;64356;45.638;13.764;2023-04-27T14:10:21;1.65;;;1.42;;
75737;SDS011;64356;45.638;13.764;2023-04-27T14:12:47;4.85;;;1.55;;
75737;SDS011;64356;45.638;13.764;2023-04-27T14:15:13;5.53;;;1.30;;
75737;SDS011;64356;45.638;13.764;2023-04-27T14:17:39;5.15;;;1.55;;
75737;SDS011;64356;45.638;13.764;2023-04-27T14:20:05;2.85;;;1.27;;
75737;SDS011;64356;45.638;13.764;2023-04-27T14:22:34;4.43;;;1.40;;
75737;SDS011;64356;45.638;13.764;2023-04-27T14:25:00;3.22;;;1.60;;
75737;SDS011;64356;45.638;13.764;2023-04-27T14:27:26;7.45;;;1.23;;
75737;SDS011;64356;45.638;13.764;2023-04-27T14:29:51;8.73;;;1.90;;
75737;SDS011;64356;45.638;13.764;2023-04-27T14:32:17;8.27;;;1.30;;
75737;SDS011;64356;45.638;13.764;2023-04-27T14:34:43;5.93;;;1.73;;
75737;SDS011;64356;45.638;13.764;2023-04-27T14:37:08;8.25;;;1.55;;
75737;SDS011;64356;45.638;13.764;2023-04-27T14:39:34;4.03;;;1.40;;
75737;SDS011;64356;45.638;13.764;2023-04-27T14:42:00;4.65;;;1.52;;
75737;SDS011;64356;45.638;13.764;2023-04-27T14:44:26;15.38;;;1.75;;
75737;SDS011;64356;45.638;13.764;2023-04-27T14:46:52;6.18;;;1.20;;
75737;SDS011;64356;45.638;13.764;2023-04-27T14:49:18;7.93;;;1.50;;